Time;durP1;ratioP1;P1;durP2;ratioP2;P2;SDS_P1;SDS_P2;PMS_P1;PMS_P2;Temp;Humidity;BMP_temperature;BMP_pressure;BME280_temperature;BME280_humidity;BME280_pressure;Samples;Min_cycle;Max_cycle;Signal;HPM_P1;HPM_P2
2019/09/27 00:00:16;;;;;;;1.9;1.4;;;;;;;14.71;100;95239.92;;;;
2019/09/27 00:01:21;;;;;;;1.9;1.4;;;;;;;14.71;100;95239.92;;;;
2019/09/27 00:02:23;;;;;;;1.9;1.4;;;;;;;14.71;100;95239.92;;;;
2019/09/27 00:03:24;;;;;;;1.9;1.4;;;;;;;14.71;100;95239.92;;;;
2019/09/27 00:04:25;;;;;;;1.75;1.4;;;;;;;14.74;100;95245.23;;;;
2019/09/27 00:05:27;;;;;;;1.75;1.4;;;;;;;14.74;100;95245.23;;;;
2019/09/27 00:06:28;;;;;;;1.75;1.4;;;;;;;14.74;100;95245.23;;;;
2019/09/27 00:07:29;;;;;;;1.75;1.4;;;;;;;14.74;100;95245.23;;;;
2019/09/27 00:08:31;;;;;;;1.75;1.4;;;;;;;14.74;100;95245.23;;;;
2019/09/27 00:09:32;;;;;;;1.75;1.4;;;;;;;14.74;100;95245.23;;;;
2019/09/27 00:10:33;;;;;;;1.75;1.4;;;;;;;14.74;100;95245.23;;;;
2019/09/27 00:11:34;;;;;;;1.75;1.4;;;;;;;14.74;100;95245.23;;;;
2019/09/27 00:12:36;;;;;;;1.75;1.4;;;;;;;14.74;100;95245.23;;;;
2019/09/27 00:13:37;;;;;;;1.75;1.4;;;;;;;14.74;100;95245.23;;;;
2019/09/27 00:14:38;;;;;;;2.35;1.4;;;;;;;14.83;100;95241.89;;;;
2019/09/27 00:15:39;;;;;;;2.35;1.4;;;;;;;14.83;100;95241.89;;;;
2019/09/27 00:16:42;;;;;;;2.35;1.4;;;;;;;14.83;100;95241.89;;;;
2019/09/27 00:17:43;;;;;;;2.35;1.4;;;;;;;14.83;100;95241.89;;;;
2019/09/27 00:18:44;;;;;;;2.35;1.4;;;;;;;14.83;100;95241.89;;;;
2019/09/27 00:19:46;;;;;;;2.35;1.4;;;;;;;14.83;100;95241.89;;;;
2019/09/27 00:20:47;;;;;;;2.35;1.4;;;;;;;14.83;100;95241.89;;;;
2019/09/27 00:22:10;;;;;;;2.35;1.4;;;;;;;14.83;100;95241.89;;;;
2019/09/27 00:23:11;;;;;;;2.35;1.4;;;;;;;14.83;100;95241.89;;;;
2019/09/27 00:24:12;;;;;;;2.35;1.4;;;;;;;14.83;100;95241.89;;;;
2019/09/27 00:25:13;;;;;;;1.7;1.6;;;;;;;14.88;100;95227.37;;;;
2019/09/27 00:26:15;;;;;;;1.7;1.6;;;;;;;14.88;100;95227.37;;;;
2019/09/27 00:27:16;;;;;;;1.7;1.6;;;;;;;14.88;100;95227.37;;;;
2019/09/27 00:28:17;;;;;;;1.7;1.6;;;;;;;14.88;100;95227.37;;;;
2019/09/27 00:29:19;;;;;;;1.7;1.6;;;;;;;14.88;100;95227.37;;;;
2019/09/27 00:30:20;;;;;;;1.7;1.6;;;;;;;14.88;100;95227.37;;;;
2019/09/27 00:31:21;;;;;;;1.7;1.6;;;;;;;14.88;100;95227.37;;;;
2019/09/27 00:32:23;;;;;;;1.7;1.6;;;;;;;14.88;100;95227.37;;;;
2019/09/27 00:33:24;;;;;;;1.7;1.6;;;;;;;14.88;100;95227.37;;;;
2019/09/27 00:34:25;;;;;;;1.7;1.6;;;;;;;14.88;100;95227.37;;;;
2019/09/27 00:35:26;;;;;;;1.7;1.6;;;;;;;14.88;100;95227.37;;;;
2019/09/27 00:36:28;;;;;;;1.7;1.6;;;;;;;14.99;100;95224.98;;;;
2019/09/27 00:37:29;;;;;;;1.7;1.6;;;;;;;14.99;100;95224.98;;;;
2019/09/27 00:38:30;;;;;;;1.7;1.6;;;;;;;14.99;100;95224.98;;;;
2019/09/27 00:39:31;;;;;;;1.7;1.6;;;;;;;14.99;100;95224.98;;;;
2019/09/27 00:40:32;;;;;;;1.7;1.6;;;;;;;14.99;100;95224.98;;;;
2019/09/27 00:41:33;;;;;;;1.7;1.6;;;;;;;14.99;100;95224.98;;;;
2019/09/27 00:42:35;;;;;;;1.7;1.6;;;;;;;14.99;100;95224.98;;;;
2019/09/27 00:43:36;;;;;;;1.7;1.6;;;;;;;14.99;100;95224.98;;;;
2019/09/27 00:44:38;;;;;;;1.7;1.6;;;;;;;14.99;100;95224.98;;;;
2019/09/27 00:45:39;;;;;;;1.7;1.6;;;;;;;14.99;100;95224.98;;;;
2019/09/27 00:46:40;;;;;;;2.9;1.7;;;;;;;15.03;100;95216.17;;;;
2019/09/27 00:47:42;;;;;;;2.9;1.7;;;;;;;15.03;100;95216.17;;;;
2019/09/27 00:48:43;;;;;;;2.9;1.7;;;;;;;15.03;100;95216.17;;;;
2019/09/27 00:49:44;;;;;;;2.9;1.7;;;;;;;15.03;100;95216.17;;;;
2019/09/27 00:50:45;;;;;;;2.9;1.7;;;;;;;15.03;100;95216.17;;;;
2019/09/27 00:51:47;;;;;;;2.9;1.7;;;;;;;15.03;100;95216.17;;;;
2019/09/27 00:52:48;;;;;;;2.9;1.7;;;;;;;15.03;100;95216.17;;;;
2019/09/27 00:53:49;;;;;;;2.9;1.7;;;;;;;15.03;100;95216.17;;;;
2019/09/27 00:54:50;;;;;;;2.9;1.7;;;;;;;15.03;100;95216.17;;;;
2019/09/27 00:55:55;;;;;;;2.9;1.7;;;;;;;15.03;100;95216.17;;;;
2019/09/27 00:56:57;;;;;;;2.9;1.7;;;;;;;15.03;100;95216.17;;;;
2019/09/27 00:57:58;;;;;;;1.95;1.6;;;;;;;15.1;100;95217.69;;;;
2019/09/27 01:00:04;;;;;;;1.95;1.6;;;;;;;15.1;100;95217.69;;;;
2019/09/27 01:01:11;;;;;;;1.95;1.6;;;;;;;15.1;100;95217.69;;;;
2019/09/27 01:02:24;;;;;;;1.95;1.6;;;;;;;15.1;100;95217.69;;;;
2019/09/27 01:03:25;;;;;;;1.95;1.6;;;;;;;15.1;100;95217.69;;;;
2019/09/27 01:04:27;;;;;;;1.95;1.6;;;;;;;15.1;100;95217.69;;;;
2019/09/27 01:05:30;;;;;;;1.95;1.6;;;;;;;15.1;100;95217.69;;;;
2019/09/27 01:06:31;;;;;;;1.95;1.6;;;;;;;15.1;100;95217.69;;;;
2019/09/27 01:07:33;;;;;;;1.95;1.6;;;;;;;15.1;100;95217.69;;;;
2019/09/27 01:08:34;;;;;;;2;1.5;;;;;;;15.12;100;95211.86;;;;
2019/09/27 01:09:35;;;;;;;2;1.5;;;;;;;15.12;100;95211.86;;;;
2019/09/27 01:10:36;;;;;;;2;1.5;;;;;;;15.12;100;95211.86;;;;
2019/09/27 01:11:38;;;;;;;2;1.5;;;;;;;15.12;100;95211.86;;;;
2019/09/27 01:12:39;;;;;;;2;1.5;;;;;;;15.12;100;95211.86;;;;
2019/09/27 01:13:40;;;;;;;2;1.5;;;;;;;15.12;100;95211.86;;;;
2019/09/27 01:14:41;;;;;;;2;1.5;;;;;;;15.12;100;95211.86;;;;
2019/09/27 01:15:43;;;;;;;2;1.5;;;;;;;15.12;100;95211.86;;;;
2019/09/27 01:16:44;;;;;;;2;1.5;;;;;;;15.12;100;95211.86;;;;
2019/09/27 01:17:45;;;;;;;2;1.5;;;;;;;15.12;100;95211.86;;;;
2019/09/27 01:18:46;;;;;;;1.9;1.6;;;;;;;15.2;100;95213.64;;;;
2019/09/27 01:19:48;;;;;;;1.9;1.6;;;;;;;15.2;100;95213.64;;;;
2019/09/27 01:20:49;;;;;;;1.9;1.6;;;;;;;15.2;100;95213.64;;;;
2019/09/27 01:21:50;;;;;;;1.9;1.6;;;;;;;15.2;100;95213.64;;;;
2019/09/27 01:22:51;;;;;;;1.9;1.6;;;;;;;15.2;100;95213.64;;;;
2019/09/27 01:23:53;;;;;;;1.9;1.6;;;;;;;15.2;100;95213.64;;;;
2019/09/27 01:24:54;;;;;;;1.9;1.6;;;;;;;15.2;100;95213.64;;;;
2019/09/27 01:25:55;;;;;;;1.9;1.6;;;;;;;15.2;100;95213.64;;;;
2019/09/27 01:26:56;;;;;;;1.9;1.6;;;;;;;15.2;100;95213.64;;;;
2019/09/27 01:27:57;;;;;;;1.9;1.6;;;;;;;15.2;100;95213.64;;;;
2019/09/27 01:28:59;;;;;;;4.4;1.9;;;;;;;15.2;100;95198.14;;;;
2019/09/27 01:30:00;;;;;;;4.4;1.9;;;;;;;15.2;100;95198.14;;;;
2019/09/27 01:31:02;;;;;;;4.4;1.9;;;;;;;15.2;100;95198.14;;;;
2019/09/27 01:32:04;;;;;;;4.4;1.9;;;;;;;15.2;100;95198.14;;;;
2019/09/27 01:33:07;;;;;;;4.4;1.9;;;;;;;15.2;100;95198.14;;;;
2019/09/27 01:34:08;;;;;;;4.4;1.9;;;;;;;15.2;100;95198.14;;;;
2019/09/27 01:35:09;;;;;;;4.4;1.9;;;;;;;15.2;100;95198.14;;;;
2019/09/27 01:36:11;;;;;;;4.4;1.9;;;;;;;15.2;100;95198.14;;;;
2019/09/27 01:37:12;;;;;;;4.4;1.9;;;;;;;15.2;100;95198.14;;;;
2019/09/27 01:38:13;;;;;;;4.4;1.9;;;;;;;15.2;100;95198.14;;;;
2019/09/27 01:39:15;;;;;;;4.4;1.9;;;;;;;15.2;100;95198.14;;;;
2019/09/27 01:40:17;;;;;;;2.6;1.85;;;;;;;15.26;100;95193.95;;;;
2019/09/27 01:41:18;;;;;;;2.6;1.85;;;;;;;15.26;100;95193.95;;;;
2019/09/27 01:42:20;;;;;;;2.6;1.85;;;;;;;15.26;100;95193.95;;;;
2019/09/27 01:43:21;;;;;;;2.6;1.85;;;;;;;15.26;100;95193.95;;;;
2019/09/27 01:44:22;;;;;;;2.6;1.85;;;;;;;15.26;100;95193.95;;;;
2019/09/27 01:45:23;;;;;;;2.6;1.85;;;;;;;15.26;100;95193.95;;;;
2019/09/27 01:46:33;;;;;;;2.6;1.85;;;;;;;15.26;100;95193.95;;;;
2019/09/27 01:47:34;;;;;;;2.6;1.85;;;;;;;15.26;100;95193.95;;;;
2019/09/27 01:48:36;;;;;;;2.6;1.85;;;;;;;15.26;100;95193.95;;;;
2019/09/27 01:49:37;;;;;;;2.6;1.85;;;;;;;15.26;100;95193.95;;;;
2019/09/27 01:50:38;;;;;;;2.9;1.85;;;;;;;15.25;100;95195.06;;;;
2019/09/27 01:51:39;;;;;;;2.9;1.85;;;;;;;15.25;100;95195.06;;;;
2019/09/27 01:52:41;;;;;;;2.9;1.85;;;;;;;15.25;100;95195.06;;;;
2019/09/27 01:53:42;;;;;;;2.9;1.85;;;;;;;15.25;100;95195.06;;;;
2019/09/27 01:54:43;;;;;;;2.9;1.85;;;;;;;15.25;100;95195.06;;;;
2019/09/27 01:55:44;;;;;;;2.9;1.85;;;;;;;15.25;100;95195.06;;;;
2019/09/27 01:56:45;;;;;;;2.9;1.85;;;;;;;15.25;100;95195.06;;;;
2019/09/27 01:57:47;;;;;;;2.9;1.85;;;;;;;15.25;100;95195.06;;;;
2019/09/27 01:58:48;;;;;;;2.9;1.85;;;;;;;15.25;100;95195.06;;;;
2019/09/27 01:59:49;;;;;;;2.9;1.85;;;;;;;15.25;100;95195.06;;;;
2019/09/27 02:00:51;;;;;;;4.4;2.1;;;;;;;15.32;100;95191.66;;;;
2019/09/27 02:01:52;;;;;;;4.4;2.1;;;;;;;15.32;100;95191.66;;;;
2019/09/27 02:02:54;;;;;;;4.4;2.1;;;;;;;15.32;100;95191.66;;;;
2019/09/27 02:03:55;;;;;;;4.4;2.1;;;;;;;15.32;100;95191.66;;;;
2019/09/27 02:04:56;;;;;;;4.4;2.1;;;;;;;15.32;100;95191.66;;;;
2019/09/27 02:05:57;;;;;;;4.4;2.1;;;;;;;15.32;100;95191.66;;;;
2019/09/27 02:06:59;;;;;;;4.4;2.1;;;;;;;15.32;100;95191.66;;;;
2019/09/27 02:08:00;;;;;;;4.4;2.1;;;;;;;15.32;100;95191.66;;;;
2019/09/27 02:09:01;;;;;;;4.4;2.1;;;;;;;15.32;100;95191.66;;;;
2019/09/27 02:10:06;;;;;;;4.4;2.1;;;;;;;15.32;100;95191.66;;;;
2019/09/27 02:11:09;;;;;;;4.4;2.1;;;;;;;15.32;100;95191.66;;;;
2019/09/27 02:12:10;;;;;;;5.6;2.4;;;;;;;15.3;100;95193.83;;;;
2019/09/27 02:13:11;;;;;;;5.6;2.4;;;;;;;15.3;100;95193.83;;;;
2019/09/27 02:14:12;;;;;;;5.6;2.4;;;;;;;15.3;100;95193.83;;;;
2019/09/27 02:15:14;;;;;;;5.6;2.4;;;;;;;15.3;100;95193.83;;;;
2019/09/27 02:16:17;;;;;;;5.6;2.4;;;;;;;15.3;100;95193.83;;;;
2019/09/27 02:17:18;;;;;;;5.6;2.4;;;;;;;15.3;100;95193.83;;;;
2019/09/27 02:18:19;;;;;;;5.6;2.4;;;;;;;15.3;100;95193.83;;;;
2019/09/27 02:19:21;;;;;;;5.6;2.4;;;;;;;15.3;100;95193.83;;;;
2019/09/27 02:20:22;;;;;;;5.6;2.4;;;;;;;15.3;100;95193.83;;;;
2019/09/27 02:21:27;;;;;;;5.6;2.4;;;;;;;15.3;100;95193.83;;;;
2019/09/27 02:22:28;;;;;;;3.75;2.3;;;;;;;15.35;100;95200.63;;;;
2019/09/27 02:23:29;;;;;;;3.75;2.3;;;;;;;15.35;100;95200.63;;;;
2019/09/27 02:24:30;;;;;;;3.75;2.3;;;;;;;15.35;100;95200.63;;;;
2019/09/27 02:25:31;;;;;;;3.75;2.3;;;;;;;15.35;100;95200.63;;;;
2019/09/27 02:26:33;;;;;;;3.75;2.3;;;;;;;15.35;100;95200.63;;;;
2019/09/27 02:27:34;;;;;;;3.75;2.3;;;;;;;15.35;100;95200.63;;;;
2019/09/27 02:28:36;;;;;;;3.75;2.3;;;;;;;15.35;100;95200.63;;;;
2019/09/27 02:29:37;;;;;;;3.75;2.3;;;;;;;15.35;100;95200.63;;;;
2019/09/27 02:30:38;;;;;;;3.75;2.3;;;;;;;15.35;100;95200.63;;;;
2019/09/27 02:31:51;;;;;;;3.75;2.3;;;;;;;15.35;100;95200.63;;;;
2019/09/27 02:32:52;;;;;;;5;2.2;;;;;;;15.34;100;95194.81;;;;
2019/09/27 02:33:53;;;;;;;5;2.2;;;;;;;15.34;100;95194.81;;;;
2019/09/27 02:34:54;;;;;;;5;2.2;;;;;;;15.34;100;95194.81;;;;
2019/09/27 02:35:55;;;;;;;5;2.2;;;;;;;15.34;100;95194.81;;;;
2019/09/27 02:36:57;;;;;;;5;2.2;;;;;;;15.34;100;95194.81;;;;
2019/09/27 02:37:58;;;;;;;5;2.2;;;;;;;15.34;100;95194.81;;;;
2019/09/27 02:38:59;;;;;;;5;2.2;;;;;;;15.34;100;95194.81;;;;
2019/09/27 02:40:00;;;;;;;5;2.2;;;;;;;15.34;100;95194.81;;;;
2019/09/27 02:41:04;;;;;;;5;2.2;;;;;;;15.34;100;95194.81;;;;
2019/09/27 02:42:05;;;;;;;5;2.2;;;;;;;15.34;100;95194.81;;;;
2019/09/27 02:43:06;;;;;;;6.150001;2.3;;;;;;;15.43;100;95194.59;;;;
2019/09/27 02:44:07;;;;;;;6.150001;2.3;;;;;;;15.43;100;95194.59;;;;
2019/09/27 02:45:08;;;;;;;6.150001;2.3;;;;;;;15.43;100;95194.59;;;;
2019/09/27 02:46:13;;;;;;;6.150001;2.3;;;;;;;15.43;100;95194.59;;;;
2019/09/27 02:47:14;;;;;;;6.150001;2.3;;;;;;;15.43;100;95194.59;;;;
2019/09/27 02:48:16;;;;;;;6.150001;2.3;;;;;;;15.43;100;95194.59;;;;
2019/09/27 02:49:17;;;;;;;6.150001;2.3;;;;;;;15.43;100;95194.59;;;;
2019/09/27 02:50:18;;;;;;;6.150001;2.3;;;;;;;15.43;100;95194.59;;;;
2019/09/27 02:51:24;;;;;;;6.150001;2.3;;;;;;;15.43;100;95194.59;;;;
2019/09/27 02:52:26;;;;;;;6.150001;2.3;;;;;;;15.43;100;95194.59;;;;
2019/09/27 02:53:27;;;;;;;6.150001;2.3;;;;;;;15.43;100;95194.59;;;;
2019/09/27 02:54:28;;;;;;;5.599999;2.6;;;;;;;15.43;100;95199.22;;;;
2019/09/27 02:55:29;;;;;;;5.599999;2.6;;;;;;;15.43;100;95199.22;;;;
2019/09/27 02:56:47;;;;;;;5.599999;2.6;;;;;;;15.43;100;95199.22;;;;
2019/09/27 02:57:49;;;;;;;5.599999;2.6;;;;;;;15.43;100;95199.22;;;;
2019/09/27 02:58:50;;;;;;;5.599999;2.6;;;;;;;15.43;100;95199.22;;;;
2019/09/27 02:59:51;;;;;;;5.599999;2.6;;;;;;;15.43;100;95199.22;;;;
2019/09/27 03:00:52;;;;;;;5.599999;2.6;;;;;;;15.43;100;95199.22;;;;
2019/09/27 03:02:14;;;;;;;5.599999;2.6;;;;;;;15.43;100;95199.22;;;;
2019/09/27 03:03:16;;;;;;;5.599999;2.6;;;;;;;15.43;100;95199.22;;;;
2019/09/27 03:04:17;;;;;;;5.599999;2.6;;;;;;;15.43;100;95199.22;;;;
2019/09/27 03:05:18;;;;;;;4.15;2.4;;;;;;;15.44;100;95197.71;;;;
2019/09/27 03:06:19;;;;;;;4.15;2.4;;;;;;;15.44;100;95197.71;;;;
2019/09/27 03:07:21;;;;;;;4.15;2.4;;;;;;;15.44;100;95197.71;;;;
2019/09/27 03:08:22;;;;;;;4.15;2.4;;;;;;;15.44;100;95197.71;;;;
2019/09/27 03:09:23;;;;;;;4.15;2.4;;;;;;;15.44;100;95197.71;;;;
2019/09/27 03:10:24;;;;;;;4.15;2.4;;;;;;;15.44;100;95197.71;;;;
2019/09/27 03:11:26;;;;;;;4.15;2.4;;;;;;;15.44;100;95197.71;;;;
2019/09/27 03:12:27;;;;;;;4.15;2.4;;;;;;;15.44;100;95197.71;;;;
2019/09/27 03:13:28;;;;;;;4.15;2.4;;;;;;;15.44;100;95197.71;;;;
2019/09/27 03:14:30;;;;;;;4.15;2.4;;;;;;;15.44;100;95197.71;;;;
2019/09/27 03:15:31;;;;;;;5.150001;2.55;;;;;;;15.36;100;95189.51;;;;
2019/09/27 03:16:32;;;;;;;5.150001;2.55;;;;;;;15.36;100;95189.51;;;;
2019/09/27 03:17:34;;;;;;;5.150001;2.55;;;;;;;15.36;100;95189.51;;;;
2019/09/27 03:18:35;;;;;;;5.150001;2.55;;;;;;;15.36;100;95189.51;;;;
2019/09/27 03:19:36;;;;;;;5.150001;2.55;;;;;;;15.36;100;95189.51;;;;
2019/09/27 03:20:37;;;;;;;5.150001;2.55;;;;;;;15.36;100;95189.51;;;;
2019/09/27 03:21:38;;;;;;;5.150001;2.55;;;;;;;15.36;100;95189.51;;;;
2019/09/27 03:22:40;;;;;;;5.150001;2.55;;;;;;;15.36;100;95189.51;;;;
2019/09/27 03:23:41;;;;;;;5.150001;2.55;;;;;;;15.36;100;95189.51;;;;
2019/09/27 03:24:42;;;;;;;5.150001;2.55;;;;;;;15.36;100;95189.51;;;;
2019/09/27 03:25:43;;;;;;;6;2.6;;;;;;;15.35;100;95183.78;;;;
2019/09/27 03:26:44;;;;;;;6;2.6;;;;;;;15.35;100;95183.78;;;;
2019/09/27 03:27:45;;;;;;;6;2.6;;;;;;;15.35;100;95183.78;;;;
2019/09/27 03:28:47;;;;;;;6;2.6;;;;;;;15.35;100;95183.78;;;;
2019/09/27 03:29:48;;;;;;;6;2.6;;;;;;;15.35;100;95183.78;;;;
2019/09/27 03:30:49;;;;;;;6;2.6;;;;;;;15.35;100;95183.78;;;;
2019/09/27 03:31:58;;;;;;;6;2.6;;;;;;;15.35;100;95183.78;;;;
2019/09/27 03:32:59;;;;;;;6;2.6;;;;;;;15.35;100;95183.78;;;;
2019/09/27 03:34:01;;;;;;;6;2.6;;;;;;;15.35;100;95183.78;;;;
2019/09/27 03:35:03;;;;;;;6;2.6;;;;;;;15.35;100;95183.78;;;;
2019/09/27 03:36:04;;;;;;;6;2.6;;;;;;;15.35;100;95183.78;;;;
2019/09/27 03:37:06;;;;;;;5.199999;3.05;;;;;;;15.26;100;95162.8;;;;
2019/09/27 03:38:07;;;;;;;5.199999;3.05;;;;;;;15.26;100;95162.8;;;;
2019/09/27 03:39:09;;;;;;;5.199999;3.05;;;;;;;15.26;100;95162.8;;;;
2019/09/27 03:40:10;;;;;;;5.199999;3.05;;;;;;;15.26;100;95162.8;;;;
2019/09/27 03:41:12;;;;;;;5.199999;3.05;;;;;;;15.26;100;95162.8;;;;
2019/09/27 03:42:14;;;;;;;5.199999;3.05;;;;;;;15.26;100;95162.8;;;;
2019/09/27 03:43:15;;;;;;;5.199999;3.05;;;;;;;15.26;100;95162.8;;;;
2019/09/27 03:44:16;;;;;;;5.199999;3.05;;;;;;;15.26;100;95162.8;;;;
2019/09/27 03:45:17;;;;;;;5.199999;3.05;;;;;;;15.26;100;95162.8;;;;
2019/09/27 03:46:22;;;;;;;5.199999;3.05;;;;;;;15.26;100;95162.8;;;;
2019/09/27 03:47:23;;;;;;;6.1;2.6;;;;;;;15.14;100;95162.52;;;;
2019/09/27 03:48:25;;;;;;;6.1;2.6;;;;;;;15.14;100;95162.52;;;;
2019/09/27 03:49:26;;;;;;;6.1;2.6;;;;;;;15.14;100;95162.52;;;;
2019/09/27 03:50:27;;;;;;;6.1;2.6;;;;;;;15.14;100;95162.52;;;;
2019/09/27 03:51:28;;;;;;;6.1;2.6;;;;;;;15.14;100;95162.52;;;;
2019/09/27 03:52:29;;;;;;;6.1;2.6;;;;;;;15.14;100;95162.52;;;;
2019/09/27 03:53:31;;;;;;;6.1;2.6;;;;;;;15.14;100;95162.52;;;;
2019/09/27 03:54:32;;;;;;;6.1;2.6;;;;;;;15.14;100;95162.52;;;;
2019/09/27 03:55:33;;;;;;;6.1;2.6;;;;;;;15.14;100;95162.52;;;;
2019/09/27 03:56:34;;;;;;;6.1;2.6;;;;;;;15.14;100;95162.52;;;;
2019/09/27 03:57:36;;;;;;;5.5;2.7;;;;;;;14.86;100;95166.17;;;;
2019/09/27 03:58:37;;;;;;;5.5;2.7;;;;;;;14.86;100;95166.17;;;;
2019/09/27 03:59:38;;;;;;;5.5;2.7;;;;;;;14.86;100;95166.17;;;;
2019/09/27 04:00:39;;;;;;;5.5;2.7;;;;;;;14.86;100;95166.17;;;;
2019/09/27 04:01:41;;;;;;;5.5;2.7;;;;;;;14.86;100;95166.17;;;;
2019/09/27 04:02:42;;;;;;;5.5;2.7;;;;;;;14.86;100;95166.17;;;;
2019/09/27 04:03:43;;;;;;;5.5;2.7;;;;;;;14.86;100;95166.17;;;;
2019/09/27 04:04:44;;;;;;;5.5;2.7;;;;;;;14.86;100;95166.17;;;;
2019/09/27 04:05:46;;;;;;;5.5;2.7;;;;;;;14.86;100;95166.17;;;;
2019/09/27 04:06:47;;;;;;;5.5;2.7;;;;;;;14.86;100;95166.17;;;;
2019/09/27 04:07:48;;;;;;;5.5;2.7;;;;;;;14.86;100;95166.17;;;;
2019/09/27 04:08:49;;;;;;;6.9;2.85;;;;;;;14.77;100;95178.67;;;;
2019/09/27 04:09:50;;;;;;;6.9;2.85;;;;;;;14.77;100;95178.67;;;;
2019/09/27 04:10:52;;;;;;;6.9;2.85;;;;;;;14.77;100;95178.67;;;;
2019/09/27 04:11:53;;;;;;;6.9;2.85;;;;;;;14.77;100;95178.67;;;;
2019/09/27 04:12:54;;;;;;;6.9;2.85;;;;;;;14.77;100;95178.67;;;;
2019/09/27 04:13:55;;;;;;;6.9;2.85;;;;;;;14.77;100;95178.67;;;;
2019/09/27 04:14:56;;;;;;;6.9;2.85;;;;;;;14.77;100;95178.67;;;;
2019/09/27 04:15:57;;;;;;;6.9;2.85;;;;;;;14.77;100;95178.67;;;;
2019/09/27 04:16:59;;;;;;;6.9;2.85;;;;;;;14.77;100;95178.67;;;;
2019/09/27 04:18:00;;;;;;;6.9;2.85;;;;;;;14.77;100;95178.67;;;;
2019/09/27 04:19:01;;;;;;;6.05;2.7;;;;;;;14.73;100;95181.22;;;;
2019/09/27 04:20:03;;;;;;;6.05;2.7;;;;;;;14.73;100;95181.22;;;;
2019/09/27 04:21:04;;;;;;;6.05;2.7;;;;;;;14.73;100;95181.22;;;;
2019/09/27 04:22:05;;;;;;;6.05;2.7;;;;;;;14.73;100;95181.22;;;;
2019/09/27 04:23:07;;;;;;;6.05;2.7;;;;;;;14.73;100;95181.22;;;;
2019/09/27 04:24:08;;;;;;;6.05;2.7;;;;;;;14.73;100;95181.22;;;;
2019/09/27 04:25:09;;;;;;;6.05;2.7;;;;;;;14.73;100;95181.22;;;;
2019/09/27 04:26:12;;;;;;;6.05;2.7;;;;;;;14.73;100;95181.22;;;;
2019/09/27 04:27:13;;;;;;;6.05;2.7;;;;;;;14.73;100;95181.22;;;;
2019/09/27 04:28:14;;;;;;;6.05;2.7;;;;;;;14.73;100;95181.22;;;;
2019/09/27 04:29:16;;;;;;;5.7;2.9;;;;;;;14.68;100;95174.4;;;;
2019/09/27 04:30:17;;;;;;;5.7;2.9;;;;;;;14.68;100;95174.4;;;;
2019/09/27 04:31:21;;;;;;;5.7;2.9;;;;;;;14.68;100;95174.4;;;;
2019/09/27 04:32:22;;;;;;;5.7;2.9;;;;;;;14.68;100;95174.4;;;;
2019/09/27 04:33:23;;;;;;;5.7;2.9;;;;;;;14.68;100;95174.4;;;;
2019/09/27 04:34:25;;;;;;;5.7;2.9;;;;;;;14.68;100;95174.4;;;;
2019/09/27 04:35:26;;;;;;;5.7;2.9;;;;;;;14.68;100;95174.4;;;;
2019/09/27 04:36:28;;;;;;;5.7;2.9;;;;;;;14.68;100;95174.4;;;;
2019/09/27 04:37:29;;;;;;;5.7;2.9;;;;;;;14.68;100;95174.4;;;;
2019/09/27 04:38:30;;;;;;;5.7;2.9;;;;;;;14.68;100;95174.4;;;;
2019/09/27 04:39:32;;;;;;;5.7;2.9;;;;;;;14.68;100;95174.4;;;;
2019/09/27 04:40:33;;;;;;;5.400001;2.7;;;;;;;14.54;100;95173.1;;;;
2019/09/27 04:41:36;;;;;;;5.400001;2.7;;;;;;;14.54;100;95173.1;;;;
2019/09/27 04:42:37;;;;;;;5.400001;2.7;;;;;;;14.54;100;95173.1;;;;
2019/09/27 04:43:38;;;;;;;5.400001;2.7;;;;;;;14.54;100;95173.1;;;;
2019/09/27 04:44:39;;;;;;;5.400001;2.7;;;;;;;14.54;100;95173.1;;;;
2019/09/27 04:45:40;;;;;;;5.400001;2.7;;;;;;;14.54;100;95173.1;;;;
2019/09/27 04:46:49;;;;;;;5.400001;2.7;;;;;;;14.54;100;95173.1;;;;
2019/09/27 04:47:50;;;;;;;5.400001;2.7;;;;;;;14.54;100;95173.1;;;;
2019/09/27 04:49:11;;;;;;;5.400001;2.7;;;;;;;14.54;100;95173.1;;;;
2019/09/27 04:51:16;;;;;;;5.400001;2.7;;;;;;;14.54;100;95173.1;;;;
2019/09/27 04:52:17;;;;;;;7.05;2.9;;;;;;;14.57;100;95158.17;;;;
2019/09/27 04:53:18;;;;;;;7.05;2.9;;;;;;;14.57;100;95158.17;;;;
2019/09/27 04:54:20;;;;;;;7.05;2.9;;;;;;;14.57;100;95158.17;;;;
2019/09/27 04:55:21;;;;;;;7.05;2.9;;;;;;;14.57;100;95158.17;;;;
2019/09/27 04:56:22;;;;;;;7.05;2.9;;;;;;;14.57;100;95158.17;;;;
2019/09/27 04:57:23;;;;;;;7.05;2.9;;;;;;;14.57;100;95158.17;;;;
2019/09/27 04:58:24;;;;;;;7.05;2.9;;;;;;;14.57;100;95158.17;;;;
2019/09/27 04:59:25;;;;;;;7.05;2.9;;;;;;;14.57;100;95158.17;;;;
2019/09/27 05:00:26;;;;;;;7.05;2.9;;;;;;;14.57;100;95158.17;;;;
2019/09/27 05:01:29;;;;;;;4.300001;3.05;;;;;;;14.57;100;95163.45;;;;
2019/09/27 05:02:31;;;;;;;4.300001;3.05;;;;;;;14.57;100;95163.45;;;;
2019/09/27 05:03:32;;;;;;;4.300001;3.05;;;;;;;14.57;100;95163.45;;;;
2019/09/27 05:04:41;;;;;;;4.300001;3.05;;;;;;;14.57;100;95163.45;;;;
2019/09/27 05:05:42;;;;;;;4.300001;3.05;;;;;;;14.57;100;95163.45;;;;
2019/09/27 05:06:43;;;;;;;4.300001;3.05;;;;;;;14.57;100;95163.45;;;;
2019/09/27 05:07:44;;;;;;;4.300001;3.05;;;;;;;14.57;100;95163.45;;;;
2019/09/27 05:08:45;;;;;;;4.300001;3.05;;;;;;;14.57;100;95163.45;;;;
2019/09/27 05:09:46;;;;;;;4.300001;3.05;;;;;;;14.57;100;95163.45;;;;
2019/09/27 05:10:49;;;;;;;4.300001;3.05;;;;;;;14.57;100;95163.45;;;;
2019/09/27 05:11:53;;;;;;;7.25;2.6;;;;;;;14.66;100;95156.59;;;;
2019/09/27 05:12:54;;;;;;;7.25;2.6;;;;;;;14.66;100;95156.59;;;;
2019/09/27 05:13:55;;;;;;;7.25;2.6;;;;;;;14.66;100;95156.59;;;;
2019/09/27 05:14:56;;;;;;;7.25;2.6;;;;;;;14.66;100;95156.59;;;;
2019/09/27 05:15:57;;;;;;;7.25;2.6;;;;;;;14.66;100;95156.59;;;;
2019/09/27 05:16:58;;;;;;;7.25;2.6;;;;;;;14.66;100;95156.59;;;;
2019/09/27 05:17:59;;;;;;;7.25;2.6;;;;;;;14.66;100;95156.59;;;;
2019/09/27 05:19:01;;;;;;;7.25;2.6;;;;;;;14.66;100;95156.59;;;;
2019/09/27 05:20:02;;;;;;;7.25;2.6;;;;;;;14.66;100;95156.59;;;;
2019/09/27 05:21:04;;;;;;;7.25;2.6;;;;;;;14.66;100;95156.59;;;;
2019/09/27 05:22:06;;;;;;;7.25;2.6;;;;;;;14.66;100;95156.59;;;;
2019/09/27 05:23:07;;;;;;;4.6;2.45;;;;;;;14.65;100;95149.91;;;;
2019/09/27 05:24:08;;;;;;;4.6;2.45;;;;;;;14.65;100;95149.91;;;;
2019/09/27 05:25:09;;;;;;;4.6;2.45;;;;;;;14.65;100;95149.91;;;;
2019/09/27 05:26:12;;;;;;;4.6;2.45;;;;;;;14.65;100;95149.91;;;;
2019/09/27 05:27:13;;;;;;;4.6;2.45;;;;;;;14.65;100;95149.91;;;;
2019/09/27 05:28:14;;;;;;;4.6;2.45;;;;;;;14.65;100;95149.91;;;;
2019/09/27 05:29:16;;;;;;;4.6;2.45;;;;;;;14.65;100;95149.91;;;;
2019/09/27 05:30:17;;;;;;;4.6;2.45;;;;;;;14.65;100;95149.91;;;;
2019/09/27 05:31:38;;;;;;;4.6;2.45;;;;;;;14.65;100;95149.91;;;;
2019/09/27 05:32:40;;;;;;;4.6;2.45;;;;;;;14.65;100;95149.91;;;;
2019/09/27 05:33:41;;;;;;;4.85;2.3;;;;;;;14.52;100;95148.49;;;;
2019/09/27 05:34:42;;;;;;;4.85;2.3;;;;;;;14.52;100;95148.49;;;;
2019/09/27 05:35:43;;;;;;;4.85;2.3;;;;;;;14.52;100;95148.49;;;;
2019/09/27 05:36:44;;;;;;;4.85;2.3;;;;;;;14.52;100;95148.49;;;;
2019/09/27 05:37:45;;;;;;;4.85;2.3;;;;;;;14.52;100;95148.49;;;;
2019/09/27 05:38:46;;;;;;;4.85;2.3;;;;;;;14.52;100;95148.49;;;;
2019/09/27 05:39:47;;;;;;;4.85;2.3;;;;;;;14.52;100;95148.49;;;;
2019/09/27 05:40:49;;;;;;;4.85;2.3;;;;;;;14.52;100;95148.49;;;;
2019/09/27 05:41:53;;;;;;;4.85;2.3;;;;;;;14.52;100;95148.49;;;;
2019/09/27 05:42:54;;;;;;;4.85;2.3;;;;;;;14.52;100;95148.49;;;;
2019/09/27 05:43:56;;;;;;;3.35;2.1;;;;;;;14.46;100;95152.81;;;;
2019/09/27 05:44:57;;;;;;;3.35;2.1;;;;;;;14.46;100;95152.81;;;;
2019/09/27 05:45:58;;;;;;;3.35;2.1;;;;;;;14.46;100;95152.81;;;;
2019/09/27 05:46:59;;;;;;;3.35;2.1;;;;;;;14.46;100;95152.81;;;;
2019/09/27 05:48:00;;;;;;;3.35;2.1;;;;;;;14.46;100;95152.81;;;;
2019/09/27 05:49:01;;;;;;;3.35;2.1;;;;;;;14.46;100;95152.81;;;;
2019/09/27 05:50:03;;;;;;;3.35;2.1;;;;;;;14.46;100;95152.81;;;;
2019/09/27 05:51:05;;;;;;;3.35;2.1;;;;;;;14.46;100;95152.81;;;;
2019/09/27 05:52:06;;;;;;;3.35;2.1;;;;;;;14.46;100;95152.81;;;;
2019/09/27 05:53:07;;;;;;;3.35;2.1;;;;;;;14.46;100;95152.81;;;;
2019/09/27 05:54:09;;;;;;;4.5;2;;;;;;;14.68;100;95155.22;;;;
2019/09/27 05:55:10;;;;;;;4.5;2;;;;;;;14.68;100;95155.22;;;;
2019/09/27 05:56:12;;;;;;;4.5;2;;;;;;;14.68;100;95155.22;;;;
2019/09/27 05:57:13;;;;;;;4.5;2;;;;;;;14.68;100;95155.22;;;;
2019/09/27 05:58:14;;;;;;;4.5;2;;;;;;;14.68;100;95155.22;;;;
2019/09/27 05:59:15;;;;;;;4.5;2;;;;;;;14.68;100;95155.22;;;;
2019/09/27 06:00:16;;;;;;;4.5;2;;;;;;;14.68;100;95155.22;;;;
2019/09/27 06:01:20;;;;;;;4.5;2;;;;;;;14.68;100;95155.22;;;;
2019/09/27 06:02:22;;;;;;;4.5;2;;;;;;;14.68;100;95155.22;;;;
2019/09/27 06:03:23;;;;;;;4.5;2;;;;;;;14.68;100;95155.22;;;;
2019/09/27 06:04:24;;;;;;;4.5;2;;;;;;;14.68;100;95155.22;;;;
2019/09/27 06:05:25;;;;;;;4.4;2;;;;;;;14.9;100;95148.26;;;;
2019/09/27 06:06:26;;;;;;;4.4;2;;;;;;;14.9;100;95148.26;;;;
2019/09/27 06:07:27;;;;;;;4.4;2;;;;;;;14.9;100;95148.26;;;;
2019/09/27 06:08:28;;;;;;;4.4;2;;;;;;;14.9;100;95148.26;;;;
2019/09/27 06:09:30;;;;;;;4.4;2;;;;;;;14.9;100;95148.26;;;;
2019/09/27 06:10:31;;;;;;;4.4;2;;;;;;;14.9;100;95148.26;;;;
2019/09/27 06:11:32;;;;;;;4.4;2;;;;;;;14.9;100;95148.26;;;;
2019/09/27 06:12:33;;;;;;;4.4;2;;;;;;;14.9;100;95148.26;;;;
2019/09/27 06:13:34;;;;;;;4.4;2;;;;;;;14.9;100;95148.26;;;;
2019/09/27 06:14:35;;;;;;;4.4;2;;;;;;;14.9;100;95148.26;;;;
2019/09/27 06:15:37;;;;;;;2.2;1.8;;;;;;;15.29;100;95151.25;;;;
2019/09/27 06:16:40;;;;;;;2.2;1.8;;;;;;;15.29;100;95151.25;;;;
2019/09/27 06:17:42;;;;;;;2.2;1.8;;;;;;;15.29;100;95151.25;;;;
2019/09/27 06:18:43;;;;;;;2.2;1.8;;;;;;;15.29;100;95151.25;;;;
2019/09/27 06:19:44;;;;;;;2.2;1.8;;;;;;;15.29;100;95151.25;;;;
2019/09/27 06:20:45;;;;;;;2.2;1.8;;;;;;;15.29;100;95151.25;;;;
2019/09/27 06:21:47;;;;;;;2.2;1.8;;;;;;;15.29;100;95151.25;;;;
2019/09/27 06:22:48;;;;;;;2.2;1.8;;;;;;;15.29;100;95151.25;;;;
2019/09/27 06:23:49;;;;;;;2.2;1.8;;;;;;;15.29;100;95151.25;;;;
2019/09/27 06:24:50;;;;;;;2.2;1.8;;;;;;;15.29;100;95151.25;;;;
2019/09/27 06:25:52;;;;;;;2.2;1.8;;;;;;;15.29;100;95151.25;;;;